Rawlings, Maryland
Current Conditions -  °F | °C
As of 2:54 PM on Thursday 30 Oct 2014 (Local Time) from KCBE Reporting Station
Overcast Overcast  
Wind Chill: 52°   Ceiling: 4900
Heat Index: 52°   Visibility: 10mi
Dew Point: 32°   Wind: 0mph
Humidity: 47%   Direction: NA
Pressure: 30.1"   Gusts: NA
Location:  39.53°N, 78.88°W
Report Text: KCBE 301854Z AUTO 00000KT 10SM OVC049 11/00 A3010 RMK AO1
Loading
Personal Weather Stations






























Interactive Weather Map
Tropical Storm Tracking
New forecast layout! Learn more

10-Day Weather Forecast

Advertisements
Track Severe Weather on mobile